Time;durP1;ratioP1;P1;durP2;ratioP2;P2;SDS_P1;SDS_P2;PMS_P1;PMS_P2;Temp;Humidity;BMP_temperature;BMP_pressure;BME280_temperature;BME280_humidity;BME280_pressure;Samples;Min_cycle;Max_cycle;Signal;HPM_P1;HPM_P2
2022/07/04 00:00:19;;;;;;;4.32;2.05;;;;;;;14.58;67.31;101923.31;5061264;28;20402;-73
2022/07/04 00:02:45;;;;;;;6.07;2.42;;;;;;;14.55;67.40;101931.22;5064433;28;20755;-73
2022/07/04 00:05:12;;;;;;;9.98;3.15;;;;;;;14.49;67.53;101931.41;5068280;28;20069;-73
2022/07/04 00:07:38;;;;;;;9.20;3.65;;;;;;;14.42;67.66;101931.53;5061926;28;20887;-73
2022/07/04 00:10:05;;;;;;;7.45;3.53;;;;;;;14.37;68.01;101930.78;5070069;28;20436;-73
2022/07/04 00:12:30;;;;;;;9.55;3.85;;;;;;;14.34;68.02;101928.28;5080017;28;20028;-73
2022/07/04 00:14:55;;;;;;;7.40;3.70;;;;;;;14.33;67.84;101926.56;5064293;28;20027;-73
2022/07/04 00:17:21;;;;;;;10.32;4.15;;;;;;;14.32;67.92;101927.44;5060868;28;20057;-73
2022/07/04 00:19:46;;;;;;;6.53;2.88;;;;;;;14.30;67.72;101925.75;5065157;28;20072;-73
2022/07/04 00:22:11;;;;;;;5.85;2.67;;;;;;;14.29;68.08;101924.91;5062032;28;20029;-73
2022/07/04 00:24:36;;;;;;;11.00;4.13;;;;;;;14.26;68.04;101924.97;5067997;28;20102;-73
2022/07/04 00:27:02;;;;;;;7.47;3.88;;;;;;;14.24;68.05;101924.13;5065305;28;20028;-73
2022/07/04 00:29:27;;;;;;;5.10;3.30;;;;;;;14.21;68.34;101921.59;5065090;28;20039;-73
2022/07/04 00:31:53;;;;;;;4.57;2.65;;;;;;;14.19;68.00;101928.59;5061278;28;20526;-73
2022/07/04 00:34:18;;;;;;;4.85;2.00;;;;;;;14.15;68.36;101916.50;5062798;28;20024;-74
2022/07/04 00:36:43;;;;;;;3.28;2.08;;;;;;;14.11;68.21;101918.31;5061096;28;20035;-73
2022/07/04 00:39:09;;;;;;;4.72;2.22;;;;;;;14.08;68.55;101923.66;5064266;28;20078;-73
2022/07/04 00:41:34;;;;;;;4.70;2.65;;;;;;;14.04;68.81;101917.59;5060701;28;20036;-73
2022/07/04 00:44:01;;;;;;;6.65;2.80;;;;;;;14.01;68.57;101915.06;5064985;28;20016;-74
2022/07/04 00:46:26;;;;;;;7.82;2.85;;;;;;;13.99;68.69;101924.72;5060253;28;20130;-74
2022/07/04 00:48:51;;;;;;;6.20;2.83;;;;;;;13.96;69.11;101922.16;5063023;28;20036;-73
2022/07/04 00:51:17;;;;;;;8.95;3.13;;;;;;;13.94;69.45;101923.94;5069322;28;20028;-73
2022/07/04 00:53:42;;;;;;;7.75;3.40;;;;;;;13.93;69.62;101919.63;5062114;28;20082;-73
2022/07/04 00:56:08;;;;;;;6.85;3.38;;;;;;;13.91;69.41;101924.91;5063404;28;20532;-73
2022/07/04 00:58:33;;;;;;;4.88;2.80;;;;;;;13.89;69.53;101920.56;5064623;28;20039;-73
2022/07/04 01:00:59;;;;;;;6.85;2.60;;;;;;;13.89;69.46;101920.56;5062964;28;20024;-73
2022/07/04 01:03:24;;;;;;;4.82;2.60;;;;;;;13.88;69.33;101914.50;5058015;28;20035;-73
2022/07/04 01:05:50;;;;;;;4.30;2.28;;;;;;;13.87;69.35;101919.75;5060549;28;20476;-73
2022/07/04 01:08:16;;;;;;;4.75;2.17;;;;;;;13.85;69.52;101917.19;5059968;28;20058;-73
2022/07/04 01:10:41;;;;;;;5.75;2.40;;;;;;;13.84;69.40;101910.22;5066309;28;20032;-73
2022/07/04 01:13:06;;;;;;;5.80;2.40;;;;;;;13.83;69.48;101905.03;5062540;28;20111;-73
2022/07/04 01:15:32;;;;;;;3.63;2.13;;;;;;;13.83;68.61;101905.03;5063432;28;20522;-73
2022/07/04 01:17:57;;;;;;;5.10;2.60;;;;;;;13.84;68.43;101907.59;5060869;28;20021;-73
2022/07/04 01:20:23;;;;;;;5.40;2.30;;;;;;;13.83;68.45;101905.03;5061097;28;20076;-73
2022/07/04 01:22:49;;;;;;;3.97;2.13;;;;;;;13.80;68.36;101901.59;5062408;28;20021;-73
2022/07/04 01:25:14;;;;;;;5.32;2.35;;;;;;;13.78;68.20;101902.50;5060635;28;20189;-74
2022/07/04 01:27:39;;;;;;;4.00;2.40;;;;;;;13.74;67.81;101896.47;5062528;28;20017;-73
2022/07/04 01:30:05;;;;;;;3.78;2.20;;;;;;;13.68;68.25;101891.38;5061997;28;20115;-73
2022/07/04 01:32:30;;;;;;;3.78;2.20;;;;;;;13.61;69.30;101889.81;5063542;28;20027;-73
2022/07/04 01:34:55;;;;;;;3.60;2.60;;;;;;;13.54;69.70;101898.66;5059866;28;20028;-73
2022/07/04 01:37:21;;;;;;;5.88;2.60;;;;;;;13.47;69.33;101890.97;5062369;28;20063;-73
2022/07/04 01:39:46;;;;;;;4.75;2.70;;;;;;;13.42;69.58;101889.31;5060127;28;20032;-73
2022/07/04 01:42:11;;;;;;;4.70;2.72;;;;;;;13.38;70.04;101891.09;5061813;28;20032;-73
2022/07/04 01:44:37;;;;;;;5.80;2.90;;;;;;;13.35;70.41;101885.94;5068755;28;20052;-73
2022/07/04 01:47:02;;;;;;;11.77;4.50;;;;;;;13.31;70.57;101889.53;5063437;28;20028;-73
2022/07/04 01:49:27;;;;;;;4.22;2.80;;;;;;;13.32;69.90;101888.66;5062790;28;20033;-73
2022/07/04 01:51:53;;;;;;;5.68;3.17;;;;;;;13.33;69.12;101885.09;5062511;28;20081;-73
2022/07/04 01:54:19;;;;;;;7.07;2.92;;;;;;;13.33;68.97;101887.72;5061038;28;20036;-73
2022/07/04 01:56:44;;;;;;;4.00;2.80;;;;;;;13.28;69.56;101877.38;5060172;28;20111;-73
2022/07/04 01:59:10;;;;;;;5.05;3.03;;;;;;;13.23;69.85;101873.13;5066534;28;20039;-73
2022/07/04 02:01:37;;;;;;;4.18;2.65;;;;;;;13.20;70.15;101874.91;5061868;28;20089;-73
2022/07/04 02:04:03;;;;;;;3.97;2.88;;;;;;;13.17;70.57;101882.81;5058214;28;20728;-73
2022/07/04 02:06:30;;;;;;;6.47;2.83;;;;;;;13.16;70.61;101883.69;5061538;28;20023;-73
2022/07/04 02:14:24;;;;;;;3.50;2.60;;;;;;;13.04;69.64;101870.88;5059621;28;21697;-73
2022/07/04 02:16:50;;;;;;;4.97;2.28;;;;;;;13.03;69.38;101871.78;5059685;28;20044;-73
2022/07/04 02:19:15;;;;;;;4.10;2.75;;;;;;;12.97;69.59;101877.13;5061580;28;20049;-74
2022/07/04 02:21:40;;;;;;;4.38;2.55;;;;;;;12.91;70.43;101883.31;5061608;28;20060;-74
2022/07/04 02:24:06;;;;;;;5.65;2.50;;;;;;;12.88;70.50;101873.78;5061681;28;20035;-74
2022/07/04 02:26:31;;;;;;;4.82;2.30;;;;;;;12.81;70.32;101876.53;5061874;28;20401;-73
2022/07/04 02:28:56;;;;;;;4.90;3.00;;;;;;;12.75;70.80;101873.16;5064016;28;20028;-74
2022/07/04 02:31:22;;;;;;;5.05;2.70;;;;;;;12.78;70.69;101880.09;5065749;28;20032;-73
2022/07/04 02:33:48;;;;;;;4.03;2.58;;;;;;;12.76;70.55;101879.25;5063769;28;20498;-73
2022/07/04 02:36:13;;;;;;;5.88;2.60;;;;;;;12.72;71.36;101875.81;5060623;28;20036;-73
2022/07/04 02:38:38;;;;;;;3.90;2.80;;;;;;;12.69;71.08;101882.84;5068084;28;20028;-74
2022/07/04 02:41:04;;;;;;;4.88;2.67;;;;;;;12.65;70.95;101886.41;5066311;28;20048;-73
2022/07/04 02:43:29;;;;;;;5.88;2.95;;;;;;;12.60;70.99;101874.31;5061790;28;20038;-73
2022/07/04 02:45:54;;;;;;;5.65;3.20;;;;;;;12.56;70.68;101880.47;5065044;28;20029;-73
2022/07/04 02:48:19;;;;;;;6.55;3.03;;;;;;;12.53;71.05;101880.50;5064716;28;20364;-73
2022/07/04 02:50:45;;;;;;;5.22;2.53;;;;;;;12.51;70.84;101881.44;5066789;28;20036;-73
2022/07/04 02:53:10;;;;;;;5.22;2.70;;;;;;;12.52;71.07;101876.16;5066293;28;20028;-73
2022/07/04 02:55:35;;;;;;;4.28;2.65;;;;;;;12.51;71.28;101886.66;5064950;28;20029;-74
2022/07/04 02:58:01;;;;;;;4.30;2.50;;;;;;;12.50;70.94;101875.34;5064652;28;20078;-73
2022/07/04 03:00:26;;;;;;;3.88;2.60;;;;;;;12.48;71.77;101884.94;5064067;28;20526;-74
2022/07/04 03:02:53;;;;;;;6.60;3.70;;;;;;;12.43;71.51;101886.78;5064264;28;20032;-73
2022/07/04 03:05:18;;;;;;;14.60;7.05;;;;;;;12.38;71.52;101888.59;5060109;28;20051;-73
2022/07/04 03:07:44;;;;;;;21.88;9.38;;;;;;;12.36;71.57;101887.75;5064561;28;20030;-73
2022/07/04 03:10:09;;;;;;;14.20;6.43;;;;;;;12.35;70.91;101896.47;5065378;28;20035;-73
2022/07/04 03:12:34;;;;;;;28.00;11.00;;;;;;;12.34;72.32;101894.75;5063122;28;21491;-73
2022/07/04 03:15:00;;;;;;;13.43;6.50;;;;;;;12.33;72.27;101900.84;5066393;28;20442;-73
2022/07/04 03:17:25;;;;;;;13.25;6.43;;;;;;;12.33;71.23;101900.84;5062870;28;20032;-73
2022/07/04 03:19:51;;;;;;;11.07;5.75;;;;;;;12.36;70.93;101906.03;5064860;28;20536;-73
2022/07/04 03:22:16;;;;;;;10.77;6.03;;;;;;;12.37;71.33;101907.75;5065468;28;20464;-73
2022/07/04 03:24:42;;;;;;;12.57;6.65;;;;;;;12.35;72.57;101917.34;5066481;28;20047;-73
2022/07/04 03:27:07;;;;;;;7.97;4.80;;;;;;;12.35;72.77;101915.63;5064027;28;20388;-73
2022/07/04 03:29:32;;;;;;;11.77;5.15;;;;;;;12.36;72.08;101912.13;5065342;28;20115;-73
2022/07/04 03:31:58;;;;;;;9.80;4.18;;;;;;;12.39;73.12;101911.19;5065149;28;20103;-73
2022/07/04 03:34:23;;;;;;;11.88;4.55;;;;;;;12.40;73.43;101918.16;5063287;28;20116;-73
2022/07/04 03:36:49;;;;;;;5.05;3.58;;;;;;;12.42;71.40;101906.78;5061442;28;20387;-73
2022/07/04 03:39:14;;;;;;;10.30;3.42;;;;;;;12.40;71.69;101908.56;5059046;28;20029;-73
2022/07/04 03:41:39;;;;;;;9.00;3.95;;;;;;;12.41;72.71;101914.66;5061024;28;20055;-73
2022/07/04 03:44:04;;;;;;;10.85;4.40;;;;;;;12.40;72.80;101915.53;5062949;28;20051;-72
2022/07/04 03:46:30;;;;;;;11.15;4.15;;;;;;;12.39;72.68;101914.66;5066608;28;20081;-73
2022/07/04 03:48:55;;;;;;;7.28;4.60;;;;;;;12.39;72.58;101922.50;5060738;28;21854;-73
2022/07/04 03:51:22;;;;;;;9.60;4.60;;;;;;;12.40;72.73;101925.97;5058947;28;20032;-73
2022/07/04 03:53:48;;;;;;;9.27;3.95;;;;;;;12.40;72.30;101933.81;5065520;28;20448;-73
2022/07/04 03:56:13;;;;;;;6.07;3.92;;;;;;;12.41;72.40;101935.53;5061512;28;20613;-73
2022/07/04 03:58:38;;;;;;;7.95;3.67;;;;;;;12.43;72.17;101941.59;5062728;28;20078;-73
2022/07/04 04:01:04;;;;;;;6.95;3.30;;;;;;;12.45;72.59;101947.66;5061626;28;20061;-73
2022/07/04 04:06:23;;;;;;;3.80;2.85;;;;;;;12.54;72.79;101951.88;5048234;28;20418;-73
2022/07/04 04:08:49;;;;;;;4.57;3.05;;;;;;;12.55;73.22;101949.22;5063414;28;20551;-73
2022/07/04 04:11:14;;;;;;;4.88;2.92;;;;;;;12.58;73.15;101954.41;5070418;28;20029;-73
2022/07/04 04:13:39;;;;;;;5.78;3.10;;;;;;;12.60;73.15;101956.97;5068945;28;20111;-73
2022/07/04 04:16:05;;;;;;;5.07;3.17;;;;;;;12.63;73.06;101953.47;5062322;28;20028;-73
2022/07/04 04:18:31;;;;;;;6.72;3.00;;;;;;;12.68;73.18;101959.44;5062666;28;20112;-74
2022/07/04 04:20:56;;;;;;;7.22;3.17;;;;;;;12.71;73.31;101951.56;5071353;28;20096;-73
2022/07/04 04:23:21;;;;;;;5.65;3.42;;;;;;;12.75;73.65;101955.88;5064859;28;20040;-73
2022/07/04 04:25:47;;;;;;;5.65;3.25;;;;;;;12.79;73.37;101954.94;5067055;28;20037;-73
2022/07/04 04:28:12;;;;;;;10.88;2.95;;;;;;;12.83;73.34;101953.13;5069173;28;20066;-73
2022/07/04 04:30:37;;;;;;;5.78;3.08;;;;;;;12.87;73.05;101960.03;5066602;28;20035;-73
2022/07/04 04:33:02;;;;;;;5.50;3.00;;;;;;;12.89;73.28;101960.84;5068846;28;20032;-73
2022/07/04 04:35:28;;;;;;;4.82;3.00;;;;;;;12.93;73.25;101959.03;5068216;28;20036;-73
2022/07/04 04:37:53;;;;;;;4.45;2.70;;;;;;;12.98;72.95;101962.44;5061173;28;20028;-73
2022/07/04 04:40:18;;;;;;;4.43;2.60;;;;;;;13.02;73.09;101975.41;5059923;28;20055;-73
2022/07/04 04:42:43;;;;;;;4.70;2.50;;;;;;;13.05;73.09;101974.50;5055741;28;20047;-73
2022/07/04 04:45:09;;;;;;;4.90;2.70;;;;;;;13.09;72.75;101976.16;5058688;28;20028;-73
2022/07/04 04:47:35;;;;;;;5.15;2.70;;;;;;;13.13;73.00;101976.97;5065886;28;20437;-73
2022/07/04 04:50:00;;;;;;;5.22;2.40;;;;;;;13.18;73.10;101982.97;5060860;28;20029;-73
2022/07/04 04:52:26;;;;;;;3.42;2.05;;;;;;;13.20;72.77;101971.59;5061841;28;20024;-73
2022/07/04 04:54:52;;;;;;;4.65;2.30;;;;;;;13.21;72.67;101968.09;5061406;28;20047;-73
2022/07/04 04:57:17;;;;;;;3.95;2.70;;;;;;;13.24;73.07;101967.16;5066179;28;20086;-73
2022/07/04 04:59:42;;;;;;;4.72;2.47;;;;;;;13.25;72.54;101961.03;5062767;28;20114;-73
2022/07/04 05:02:08;;;;;;;5.05;2.42;;;;;;;13.28;72.58;101952.31;5059941;28;20472;-73
2022/07/04 05:04:33;;;;;;;3.22;2.17;;;;;;;13.29;72.76;101956.66;5063960;28;20031;-73
2022/07/04 05:06:58;;;;;;;4.85;2.35;;;;;;;13.33;73.04;101950.44;5069496;28;20121;-73
2022/07/04 05:09:24;;;;;;;3.28;2.20;;;;;;;13.38;73.00;101958.22;5066725;28;20031;-73
2022/07/04 05:11:49;;;;;;;5.00;2.67;;;;;;;13.41;73.32;101947.75;5069631;28;20042;-73
2022/07/04 05:14:15;;;;;;;5.82;2.63;;;;;;;13.46;73.31;101951.09;5061025;28;20028;-74
2022/07/04 05:16:40;;;;;;;4.15;2.70;;;;;;;13.49;73.32;101949.28;5071850;28;20039;-74
2022/07/04 05:19:05;;;;;;;6.35;3.00;;;;;;;13.55;72.81;101955.28;5067856;28;20048;-74
2022/07/04 05:21:31;;;;;;;3.53;2.38;;;;;;;13.60;72.91;101948.22;5064969;28;20032;-73
2022/07/04 05:23:56;;;;;;;6.47;3.30;;;;;;;13.64;72.63;101955.13;5068460;28;20102;-74
2022/07/04 05:26:22;;;;;;;5.43;2.67;;;;;;;13.69;72.62;101958.47;5079805;28;20099;-73
2022/07/04 05:28:48;;;;;;;6.22;3.05;;;;;;;13.76;73.40;101961.81;5067848;28;20529;-73
2022/07/04 05:31:13;;;;;;;4.57;2.92;;;;;;;13.81;73.32;101957.34;5069916;28;20032;-74
2022/07/04 05:33:38;;;;;;;7.43;3.00;;;;;;;13.86;73.37;101955.50;5067037;28;20028;-73
2022/07/04 05:36:04;;;;;;;6.18;2.97;;;;;;;13.91;72.99;101955.41;5065048;28;20094;-74
2022/07/04 05:38:29;;;;;;;5.15;3.15;;;;;;;13.94;72.86;101944.88;5066738;28;20138;-73
2022/07/04 05:40:55;;;;;;;4.68;2.83;;;;;;;13.99;73.21;101952.63;5069213;28;20408;-73
2022/07/04 05:43:21;;;;;;;5.55;2.97;;;;;;;14.03;73.09;101955.13;5069333;28;20070;-73
2022/07/04 05:45:48;;;;;;;6.63;2.90;;;;;;;14.07;73.35;101962.03;5070152;28;20036;-73
2022/07/04 05:48:13;;;;;;;5.07;3.40;;;;;;;14.13;73.11;101961.03;5069778;28;20029;-73
2022/07/04 05:50:38;;;;;;;7.40;3.30;;;;;;;14.19;73.13;101965.25;5065834;28;20036;-73
2022/07/04 05:53:04;;;;;;;4.40;3.00;;;;;;;14.24;73.38;101966.00;5071548;28;20103;-73
2022/07/04 05:55:29;;;;;;;5.20;2.85;;;;;;;14.31;72.99;101971.97;5070885;28;20032;-73
2022/07/04 05:57:54;;;;;;;6.88;2.83;;;;;;;14.37;72.83;101963.97;5066576;28;20048;-73
2022/07/04 06:00:20;;;;;;;5.70;2.90;;;;;;;14.43;73.03;101971.69;5069807;28;20032;-73
2022/07/04 06:02:45;;;;;;;4.80;2.72;;;;;;;14.47;72.58;101969.84;5075085;28;20043;-73
2022/07/04 06:05:10;;;;;;;8.13;2.85;;;;;;;14.54;72.89;101967.06;5072122;28;20039;-73
2022/07/04 06:07:37;;;;;;;5.03;2.67;;;;;;;14.62;73.37;101971.22;5074613;28;20101;-73
2022/07/04 06:10:03;;;;;;;4.55;3.00;;;;;;;14.69;73.58;101965.81;5071542;28;20028;-73
2022/07/04 06:12:29;;;;;;;5.13;2.83;;;;;;;14.78;72.93;101969.13;5076159;28;20119;-73
2022/07/04 06:14:54;;;;;;;5.65;2.65;;;;;;;14.83;72.21;101962.88;5074864;28;20511;-73
2022/07/04 06:17:19;;;;;;;4.78;2.70;;;;;;;14.89;71.85;101974.09;5068760;28;20027;-73
2022/07/04 06:19:45;;;;;;;4.97;2.45;;;;;;;14.89;71.09;101966.25;5074907;28;20044;-73
2022/07/04 06:22:10;;;;;;;5.13;2.60;;;;;;;14.90;71.13;101976.66;5074445;28;20020;-73
2022/07/04 06:24:35;;;;;;;5.20;2.80;;;;;;;14.89;71.63;101985.41;5070236;28;20031;-73
2022/07/04 06:27:03;;;;;;;6.93;2.97;;;;;;;14.93;71.65;101979.22;5071814;28;20032;-73
2022/07/04 06:29:28;;;;;;;6.32;2.88;;;;;;;15.00;72.07;101965.06;5073794;28;20017;-74
2022/07/04 06:31:53;;;;;;;5.03;2.72;;;;;;;15.10;72.35;101977.91;5069519;28;20162;-73
2022/07/04 06:37:02;;;;;;;5.65;3.08;;;;;;;15.25;72.44;101977.50;5072717;28;20437;-74
2022/07/04 06:39:28;;;;;;;6.30;2.83;;;;;;;15.31;71.78;101979.97;5070996;28;20468;-73
2022/07/04 06:41:53;;;;;;;4.90;2.75;;;;;;;15.38;71.66;101974.53;5074618;28;20020;-73
2022/07/04 06:44:18;;;;;;;5.57;3.13;;;;;;;15.43;71.03;101973.53;5084006;28;20042;-73
2022/07/04 06:46:45;;;;;;;4.65;2.88;;;;;;;15.53;71.98;101971.50;5073347;28;20406;-73
2022/07/04 06:49:10;;;;;;;6.70;3.13;;;;;;;15.61;71.83;101977.38;5072169;28;20460;-73
2022/07/04 06:51:35;;;;;;;6.05;2.90;;;;;;;15.74;71.70;101969.13;5073855;28;20065;-74
2022/07/04 06:54:01;;;;;;;4.07;2.63;;;;;;;15.88;70.92;101968.78;5073594;28;20060;-73
2022/07/04 06:56:26;;;;;;;6.05;2.78;;;;;;;16.03;70.42;101970.06;5070844;28;20051;-73
2022/07/04 06:58:51;;;;;;;5.18;2.65;;;;;;;16.13;69.86;101968.88;5073020;28;20028;-73
2022/07/04 07:01:17;;;;;;;5.65;2.30;;;;;;;16.19;69.63;101973.94;5071004;28;20017;-73
2022/07/04 07:03:42;;;;;;;5.40;2.40;;;;;;;16.25;67.92;101972.88;5071801;28;20052;-73
2022/07/04 07:06:07;;;;;;;4.82;2.63;;;;;;;16.28;68.34;101970.19;5075123;28;20075;-73
2022/07/04 07:08:33;;;;;;;6.90;2.13;;;;;;;16.31;68.38;101971.84;5070381;28;20533;-74
2022/07/04 07:11:16;;;;;;;4.47;2.08;;;;;;;16.31;67.68;101963.97;5074268;28;20024;-74
2022/07/04 07:13:47;;;;;;;4.32;2.00;;;;;;;16.33;67.48;101964.78;5070132;28;20575;-73
2022/07/04 07:16:13;;;;;;;5.85;2.17;;;;;;;16.40;67.55;101963.66;5069963;28;20032;-73
2022/07/04 07:18:39;;;;;;;4.78;2.20;;;;;;;16.47;68.39;101959.91;5071690;28;20020;-74
2022/07/04 07:21:04;;;;;;;4.47;2.05;;;;;;;16.57;68.72;101957.84;5072270;28;20043;-73
2022/07/04 07:23:30;;;;;;;6.97;2.50;;;;;;;16.67;69.39;101961.03;5070150;28;20061;-73
2022/07/04 07:25:55;;;;;;;3.55;1.75;;;;;;;16.73;67.08;101952.97;5071106;28;20033;-73
2022/07/04 07:28:20;;;;;;;5.25;2.10;;;;;;;16.79;67.03;101950.09;5071383;28;20181;-73
2022/07/04 07:30:46;;;;;;;4.35;2.13;;;;;;;16.82;67.02;101952.63;5073850;28;20028;-74
2022/07/04 07:33:11;;;;;;;5.85;2.08;;;;;;;16.86;68.29;101960.41;5072824;28;20093;-73
2022/07/04 07:35:37;;;;;;;5.53;2.30;;;;;;;16.91;68.25;101961.13;5071039;28;20037;-74
2022/07/04 07:38:02;;;;;;;6.30;2.15;;;;;;;16.95;67.58;101965.38;5070828;28;20033;-73
2022/07/04 07:40:27;;;;;;;8.00;2.10;;;;;;;17.00;66.65;101966.06;5073580;28;20388;-74
2022/07/04 07:42:54;;;;;;;6.25;1.88;;;;;;;17.06;65.45;101971.13;5072452;28;20036;-73
2022/07/04 07:45:20;;;;;;;6.45;2.20;;;;;;;17.11;65.35;101974.44;5072326;28;20031;-74
2022/07/04 07:47:45;;;;;;;4.32;1.83;;;;;;;17.16;64.44;101968.16;5071978;28;20392;-74
2022/07/04 07:50:11;;;;;;;6.30;2.03;;;;;;;17.20;64.45;101967.16;5070528;28;20047;-74
2022/07/04 07:52:36;;;;;;;4.40;1.80;;;;;;;17.23;63.71;101972.31;5071476;28;20448;-74
2022/07/04 07:55:02;;;;;;;5.57;2.05;;;;;;;17.28;64.78;101970.34;5068642;28;20490;-73
2022/07/04 07:57:27;;;;;;;3.83;1.85;;;;;;;17.31;64.19;101962.34;5071696;28;20777;-74
2022/07/04 07:59:53;;;;;;;6.00;2.10;;;;;;;17.35;63.51;101960.47;5072318;28;20066;-73
2022/07/04 08:02:18;;;;;;;8.10;2.25;;;;;;;17.38;63.83;101944.56;5067890;28;20365;-73
2022/07/04 08:04:43;;;;;;;7.20;2.30;;;;;;;17.41;63.59;101939.22;5072062;28;20033;-74
2022/07/04 08:07:12;;;;;;;5.03;2.42;;;;;;;17.44;64.72;101939.09;5071965;28;20465;-74
2022/07/04 08:09:38;;;;;;;4.03;1.70;;;;;;;17.49;65.62;101933.66;5070667;28;20020;-73
2022/07/04 08:12:05;;;;;;;4.57;1.42;;;;;;;17.54;62.68;101939.63;5082218;28;20388;-73
2022/07/04 08:14:31;;;;;;;3.35;1.50;;;;;;;17.58;60.17;101946.47;5070462;28;20095;-74
2022/07/04 08:16:57;;;;;;;4.45;1.40;;;;;;;17.61;63.05;101943.72;5072932;28;20110;-74
2022/07/04 08:19:24;;;;;;;4.40;1.70;;;;;;;17.66;61.99;101948.81;5070707;28;20044;-73
2022/07/04 08:21:50;;;;;;;5.10;1.40;;;;;;;17.69;61.47;101941.66;5071668;28;20057;-73
2022/07/04 08:24:15;;;;;;;4.13;1.50;;;;;;;17.74;61.59;101952.88;5070684;28;20675;-73
2022/07/04 08:26:41;;;;;;;2.58;1.40;;;;;;;17.79;62.25;101954.44;5071358;28;20028;-74
2022/07/04 08:29:08;;;;;;;4.00;1.40;;;;;;;17.83;61.95;101950.78;5076639;28;20045;-74
2022/07/04 08:31:33;;;;;;;2.92;1.20;;;;;;;17.88;59.96;101959.38;5071704;28;20367;-73
2022/07/04 08:33:58;;;;;;;2.33;1.20;;;;;;;17.92;61.20;101955.72;5083881;28;20031;-74
2022/07/04 08:36:24;;;;;;;3.67;1.10;;;;;;;17.99;59.28;101959.84;5071157;28;20033;-73
2022/07/04 08:38:49;;;;;;;4.97;1.30;;;;;;;18.04;60.44;101950.00;5088997;28;20030;-73
2022/07/04 08:41:16;;;;;;;4.05;1.38;;;;;;;18.11;60.43;101962.91;5087918;28;20024;-74
2022/07/04 08:43:42;;;;;;;3.80;1.40;;;;;;;18.14;58.80;101961.03;5070252;28;20024;-73
2022/07/04 08:46:09;;;;;;;3.70;0.90;;;;;;;18.18;57.99;101962.63;5069981;28;20031;-73
2022/07/04 08:48:37;;;;;;;3.28;1.08;;;;;;;18.23;57.63;101964.19;5071011;28;20595;-74
2022/07/04 08:51:16;;;;;;;3.20;1.00;;;;;;;18.28;58.54;101967.50;5080621;28;20119;-73
2022/07/04 08:53:50;;;;;;;3.95;1.15;;;;;;;18.32;56.74;101963.84;5067924;28;20070;-74
2022/07/04 08:59:02;;;;;;;2.17;1.10;;;;;;;18.40;57.99;101967.00;5071231;28;20055;-73
2022/07/04 09:01:28;;;;;;;4.22;1.20;;;;;;;18.45;56.92;101970.31;5070657;28;20488;-74
2022/07/04 09:03:55;;;;;;;4.13;1.02;;;;;;;18.52;58.68;101976.19;5073897;28;20480;-75
2022/07/04 09:06:20;;;;;;;3.70;1.33;;;;;;;18.59;56.99;101976.78;5068331;28;20024;-74
2022/07/04 09:08:46;;;;;;;3.92;1.10;;;;;;;18.65;58.21;101971.28;5069823;28;20107;-74
2022/07/04 09:11:12;;;;;;;2.80;1.20;;;;;;;18.70;58.59;101968.44;5069589;28;20028;-73
2022/07/04 09:13:37;;;;;;;5.25;1.63;;;;;;;18.76;57.64;101968.19;5071276;28;20074;-74
2022/07/04 09:16:03;;;;;;;5.15;1.33;;;;;;;18.80;58.19;101960.06;5071872;28;20036;-74
2022/07/04 09:18:34;;;;;;;3.33;1.08;;;;;;;18.85;56.53;101972.22;5064975;28;20028;-73
2022/07/04 09:21:01;;;;;;;4.10;1.25;;;;;;;18.90;58.63;101975.50;5069759;28;20111;-74
2022/07/04 09:23:35;;;;;;;4.25;1.50;;;;;;;18.91;56.47;101967.53;5068597;28;20077;-74
2022/07/04 09:26:14;;;;;;;3.35;1.30;;;;;;;18.95;57.21;101971.78;5075266;28;20468;-74
2022/07/04 09:28:44;;;;;;;2.42;1.33;;;;;;;18.98;56.29;101967.28;5077884;28;20036;-74
2022/07/04 09:31:18;;;;;;;2.92;1.40;;;;;;;18.99;56.84;101964.59;5077343;28;20111;-73
2022/07/04 09:34:04;;;;;;;3.95;1.35;;;;;;;19.05;58.44;101971.38;5057294;28;20029;-73
2022/07/04 09:36:32;;;;;;;4.15;1.60;;;;;;;19.06;56.85;101968.66;5072614;28;20027;-73
2022/07/04 09:39:14;;;;;;;5.60;1.50;;;;;;;19.09;58.16;101970.31;5076892;28;20035;-73
2022/07/04 09:41:51;;;;;;;;;;;;;;;19.14;57.66;101968.31;5071660;28;20027;-74
2022/07/04 09:44:17;;;;;;;4.70;1.63;;;;;;;19.08;56.29;101968.63;5077574;28;19912;-73
2022/07/04 09:46:42;;;;;;;5.72;1.65;;;;;;;19.11;57.61;101963.22;5073294;28;20024;-74
2022/07/04 09:49:10;;;;;;;4.68;1.58;;;;;;;19.14;57.23;101962.19;5072574;28;20712;-74
2022/07/04 09:51:47;;;;;;;2.92;1.40;;;;;;;19.22;58.44;101958.31;5077261;28;20052;-74
2022/07/04 09:54:30;;;;;;;4.20;1.40;;;;;;;19.30;56.56;101965.03;5061472;28;20349;-74
2022/07/04 09:56:58;;;;;;;3.60;1.70;;;;;;;19.34;55.16;101964.81;5060211;28;20059;-74
2022/07/04 09:59:25;;;;;;;5.47;1.42;;;;;;;19.37;56.38;101966.44;5063257;28;20029;-73
2022/07/04 10:01:51;;;;;;;3.00;1.20;;;;;;;19.41;55.20;101965.41;5062552;28;20480;-74
2022/07/04 10:04:17;;;;;;;8.15;1.52;;;;;;;19.45;54.27;101961.69;5055656;28;20040;-73
2022/07/04 10:06:43;;;;;;;3.53;1.30;;;;;;;19.52;55.35;101960.47;5060363;28;20102;-74
2022/07/04 10:09:14;;;;;;;4.45;1.30;;;;;;;19.60;56.22;101960.13;5063918;28;20085;-74
2022/07/04 10:11:41;;;;;;;6.00;1.42;;;;;;;19.68;55.19;101951.84;5057918;28;20032;-73
2022/07/04 10:14:08;;;;;;;3.15;1.20;;;;;;;19.76;55.01;101952.34;5063296;28;20021;-74
2022/07/04 10:16:34;;;;;;;4.18;1.17;;;;;;;19.88;55.54;101952.72;5060889;28;20045;-73
2022/07/04 10:18:59;;;;;;;5.65;1.20;;;;;;;20.03;54.69;101946.72;5058249;28;20052;-74
2022/07/04 10:21:24;;;;;;;6.18;1.27;;;;;;;20.18;52.96;101947.75;5053980;28;20099;-74
2022/07/04 10:23:51;;;;;;;3.05;1.20;;;;;;;20.32;53.25;101941.81;5059810;28;20554;-74
2022/07/04 10:26:21;;;;;;;4.15;1.42;;;;;;;20.46;54.69;101943.75;5058009;28;20144;-76
2022/07/04 10:28:47;;;;;;;3.92;1.30;;;;;;;20.57;53.67;101951.13;5055054;28;20054;-74
2022/07/04 10:31:14;;;;;;;2.85;1.30;;;;;;;20.62;51.26;101949.13;5058768;28;20029;-74
2022/07/04 10:33:40;;;;;;;3.90;1.20;;;;;;;20.69;52.05;101939.94;5059202;28;20037;-73
2022/07/04 10:36:18;;;;;;;3.67;1.30;;;;;;;20.70;51.97;101931.06;5059389;28;20869;-73
2022/07/04 10:38:54;;;;;;;3.88;1.30;;;;;;;20.68;51.80;101930.28;5066410;28;20391;-74
2022/07/04 10:41:21;;;;;;;3.95;1.27;;;;;;;20.68;53.66;101932.94;5060726;28;21483;-73
2022/07/04 10:44:02;;;;;;;2.00;1.17;;;;;;;20.74;52.33;101929.97;5059536;28;20032;-74
2022/07/04 10:46:36;;;;;;;9.02;1.38;;;;;;;20.80;50.42;101926.19;5054259;28;20028;-74
2022/07/04 10:49:05;;;;;;;2.78;1.10;;;;;;;20.90;52.07;101926.56;5056847;28;20040;-74
2022/07/04 10:51:33;;;;;;;3.75;1.20;;;;;;;20.96;53.33;101920.97;5051277;28;20044;-74
2022/07/04 10:54:07;;;;;;;3.63;1.30;;;;;;;21.05;52.51;101920.47;5053223;28;20061;-74
2022/07/04 10:57:10;;;;;;;4.18;1.27;;;;;;;21.18;52.12;101922.47;5053711;28;20033;-74
2022/07/04 10:59:36;;;;;;;4.68;1.58;;;;;;;21.28;52.71;101922.81;5050933;28;20086;-74
2022/07/04 11:02:07;;;;;;;5.85;1.50;;;;;;;21.28;49.12;101931.63;5054804;28;20024;-74
2022/07/04 11:04:44;;;;;;;;;;;;;;;21.31;51.99;101910.28;5050842;28;20446;-74
2022/07/04 11:07:09;;;;;;;3.05;1.20;;;;;;;21.28;47.42;101921.03;5054232;28;20478;-74
2022/07/04 11:09:36;;;;;;;2.63;1.40;;;;;;;21.26;47.66;101914.97;5055980;28;20035;-74
2022/07/04 11:12:06;;;;;;;6.53;1.40;;;;;;;21.29;47.73;101917.47;5056259;28;20035;-74
2022/07/04 11:14:45;;;;;;;3.90;1.23;;;;;;;21.30;49.15;101919.16;5057156;28;20491;-74
2022/07/04 11:17:14;;;;;;;5.20;1.27;;;;;;;21.29;48.56;101914.81;5057408;28;20081;-75
2022/07/04 11:19:41;;;;;;;3.70;1.15;;;;;;;21.32;47.21;101917.28;5057613;28;20052;-74
2022/07/04 11:22:08;;;;;;;2.65;1.20;;;;;;;21.38;47.52;101916.94;5065694;28;20249;-74
2022/07/04 11:24:34;;;;;;;3.80;1.17;;;;;;;21.45;50.14;101906.03;5066915;28;20029;-74
2022/07/04 11:27:00;;;;;;;5.22;1.40;;;;;;;21.42;48.04;101911.47;5066411;28;20039;-73
2022/07/04 11:29:26;;;;;;;3.15;1.20;;;;;;;21.35;49.85;101921.56;5058495;28;20032;-74
2022/07/04 11:31:52;;;;;;;4.22;1.70;;;;;;;21.15;50.39;101920.00;5062812;28;21173;-74
2022/07/04 11:34:19;;;;;;;4.35;1.98;;;;;;;20.92;52.32;101922.06;5064385;28;20032;-73